Pagrindinis puslapis
METAR-TAF:

METAR-TAF

Oro uostai :

Nalčikas, Rusija

platuma: 43-30-46N, ilguma: 043-38-12E, Aukštis: 445 m

Dabartinis oras

Ataskaita buvo paskelbta 32 minutes, ne 23:00 UTC
Vėjas 4 kt iš Pietvakarių
Temperatūra 16°C
Drėgmė 77%
Slėgis 1008 hPa
Matomumas 10 km arba daugiau
Išsisklaidę debesys , Liūtiniai kamuoliniai debesys.
Apsiniaukę

METAR: URMN 172300Z 23002MPS 9999 SCT///CB OVC/// 16/12 Q1008 R24/////// NOSIG RMK QFE719

Laikas: 03:32 (23:32 UTC)

Prognozė

Ataskaita buvo paskelbta 3 valandos ir 32 minutes, ne 20:00 UTC
Prognozė galioja nuo 17 metu 21 UTC su 18 metu 06 UTC
Vėjas 6 kt iš Šiaurės/Šiaurės Rytų su gūsio iki 16 kt
Matomumas 10 km arba daugiau
Su prošvaistėmis ne aukštis 2000 ft, Liūtiniai kamuoliniai debesys.
Laikinai
nuo 17 metu 21 UTC su 18 metu 06 UTC
Vėjas 16 kt nuo kintamojo kryptimis su gūsio iki 27 kt
Matomumas: 6000 m
Su prošvaistėmis ne aukštis 1600 ft, Liūtiniai kamuoliniai debesys.
perkūnija, lietus

TAF: URMN 172000Z 1721/1806 02003G08MPS 9999 BKN020CB TEMPO 1721/1806 VRB08G14MPS 6000 -TSRA BKN016CB

Orai ataskaitas ir orų prognozės (METAR, TAF).

turimą stotys yra geltonos ir raudonos taškus žemėlapyje.

Perkelti pele per norėdami pamatyti stoties vardą.

Tada spustelėkite, norėdami matyti oro stebėjimo ir prognozės.

Norėdami pakeisti žemėlapį: spustelėkite ant žalios mygtukų su juodo kryžiaus žemyn,; žalią mygtuką su brūkšneliu, jei norite nutolinti; arba žalių rodyklių gretimoms žemėlapius.


METAR-TAF: